sensor_id;sensor_type;location;lat;lon;timestamp;P1;durP1;ratioP1;P2;durP2;ratioP2
31112;SDS011;17763;48.730;9.136;2023-06-04T00:00:18;11.55;;;7.53;;
31112;SDS011;17763;48.730;9.136;2023-06-04T00:02:43;8.82;;;6.95;;
31112;SDS011;17763;48.730;9.136;2023-06-04T00:05:12;12.82;;;7.03;;
31112;SDS011;17763;48.730;9.136;2023-06-04T00:07:38;11.02;;;7.50;;
31112;SDS011;17763;48.730;9.136;2023-06-04T00:10:06;9.13;;;6.53;;
31112;SDS011;17763;48.730;9.136;2023-06-04T00:12:32;9.20;;;7.03;;
31112;SDS011;17763;48.730;9.136;2023-06-04T00:14:57;8.63;;;6.70;;
31112;SDS011;17763;48.730;9.136;2023-06-04T00:17:23;9.02;;;6.95;;
31112;SDS011;17763;48.730;9.136;2023-06-04T00:19:49;8.93;;;7.18;;
31112;SDS011;17763;48.730;9.136;2023-06-04T00:22:17;8.25;;;6.25;;
31112;SDS011;17763;48.730;9.136;2023-06-04T00:24:49;8.38;;;6.45;;
31112;SDS011;17763;48.730;9.136;2023-06-04T00:27:15;8.70;;;6.57;;
31112;SDS011;17763;48.730;9.136;2023-06-04T00:29:40;9.15;;;6.63;;
31112;SDS011;17763;48.730;9.136;2023-06-04T00:32:06;12.75;;;6.72;;
31112;SDS011;17763;48.730;9.136;2023-06-04T00:34:32;8.70;;;6.53;;
31112;SDS011;17763;48.730;9.136;2023-06-04T00:36:58;9.73;;;7.28;;
31112;SDS011;17763;48.730;9.136;2023-06-04T00:39:26;10.10;;;7.35;;
31112;SDS011;17763;48.730;9.136;2023-06-04T00:41:52;8.98;;;7.55;;
31112;SDS011;17763;48.730;9.136;2023-06-04T00:44:17;7.80;;;6.90;;
31112;SDS011;17763;48.730;9.136;2023-06-04T00:46:43;13.00;;;7.63;;
31112;SDS011;17763;48.730;9.136;2023-06-04T00:49:12;8.73;;;7.20;;
31112;SDS011;17763;48.730;9.136;2023-06-04T00:51:38;13.02;;;7.55;;
31112;SDS011;17763;48.730;9.136;2023-06-04T00:54:04;9.70;;;6.85;;
31112;SDS011;17763;48.730;9.136;2023-06-04T00:56:37;7.65;;;6.82;;
31112;SDS011;17763;48.730;9.136;2023-06-04T00:59:04;9.65;;;7.93;;
31112;SDS011;17763;48.730;9.136;2023-06-04T01:04:34;8.90;;;6.90;;
31112;SDS011;17763;48.730;9.136;2023-06-04T01:07:07;8.85;;;6.93;;
31112;SDS011;17763;48.730;9.136;2023-06-04T01:09:38;9.48;;;7.45;;
31112;SDS011;17763;48.730;9.136;2023-06-04T01:12:04;8.85;;;6.70;;
31112;SDS011;17763;48.730;9.136;2023-06-04T01:14:33;9.43;;;6.93;;
31112;SDS011;17763;48.730;9.136;2023-06-04T01:17:02;13.53;;;8.40;;
31112;SDS011;17763;48.730;9.136;2023-06-04T01:25:20;9.27;;;7.15;;
31112;SDS011;17763;48.730;9.136;2023-06-04T01:27:52;7.43;;;6.68;;
31112;SDS011;17763;48.730;9.136;2023-06-04T01:30:28;10.50;;;6.75;;
31112;SDS011;17763;48.730;9.136;2023-06-04T01:32:55;7.95;;;6.80;;
31112;SDS011;17763;48.730;9.136;2023-06-04T01:35:22;9.57;;;7.25;;
31112;SDS011;17763;48.730;9.136;2023-06-04T01:37:48;7.88;;;7.07;;
31112;SDS011;17763;48.730;9.136;2023-06-04T01:40:16;9.27;;;7.20;;
31112;SDS011;17763;48.730;9.136;2023-06-04T01:42:45;7.53;;;6.57;;
31112;SDS011;17763;48.730;9.136;2023-06-04T01:45:10;11.23;;;7.18;;
31112;SDS011;17763;48.730;9.136;2023-06-04T01:47:36;8.25;;;6.60;;
31112;SDS011;17763;48.730;9.136;2023-06-04T01:50:02;6.85;;;6.15;;
31112;SDS011;17763;48.730;9.136;2023-06-04T01:52:35;7.10;;;6.40;;
31112;SDS011;17763;48.730;9.136;2023-06-04T01:55:05;9.88;;;6.80;;
31112;SDS011;17763;48.730;9.136;2023-06-04T01:57:32;7.07;;;6.35;;
31112;SDS011;17763;48.730;9.136;2023-06-04T02:00:02;7.40;;;6.30;;
31112;SDS011;17763;48.730;9.136;2023-06-04T02:02:35;9.80;;;6.70;;
31112;SDS011;17763;48.730;9.136;2023-06-04T02:05:02;8.55;;;6.13;;
31112;SDS011;17763;48.730;9.136;2023-06-04T02:07:36;9.35;;;6.20;;
31112;SDS011;17763;48.730;9.136;2023-06-04T02:12:59;8.43;;;6.47;;
31112;SDS011;17763;48.730;9.136;2023-06-04T02:15:27;7.32;;;6.32;;
31112;SDS011;17763;48.730;9.136;2023-06-04T02:17:56;8.25;;;6.18;;
31112;SDS011;17763;48.730;9.136;2023-06-04T02:20:24;8.18;;;6.13;;
31112;SDS011;17763;48.730;9.136;2023-06-04T02:22:53;9.93;;;6.50;;
31112;SDS011;17763;48.730;9.136;2023-06-04T02:25:24;7.18;;;6.47;;
31112;SDS011;17763;48.730;9.136;2023-06-04T02:27:52;9.18;;;6.60;;
31112;SDS011;17763;48.730;9.136;2023-06-04T02:30:18;10.98;;;6.90;;
31112;SDS011;17763;48.730;9.136;2023-06-04T02:32:44;6.75;;;5.75;;
31112;SDS011;17763;48.730;9.136;2023-06-04T02:35:10;6.90;;;6.22;;
31112;SDS011;17763;48.730;9.136;2023-06-04T02:37:36;6.25;;;5.13;;
31112;SDS011;17763;48.730;9.136;2023-06-04T02:40:04;8.20;;;6.63;;
31112;SDS011;17763;48.730;9.136;2023-06-04T02:42:33;7.70;;;5.57;;
31112;SDS011;17763;48.730;9.136;2023-06-04T02:45:01;9.50;;;6.80;;
31112;SDS011;17763;48.730;9.136;2023-06-04T02:47:27;8.02;;;6.15;;
31112;SDS011;17763;48.730;9.136;2023-06-04T02:49:52;10.00;;;5.72;;
31112;SDS011;17763;48.730;9.136;2023-06-04T02:52:18;9.93;;;6.82;;
31112;SDS011;17763;48.730;9.136;2023-06-04T02:54:47;8.10;;;6.35;;
31112;SDS011;17763;48.730;9.136;2023-06-04T02:57:18;7.82;;;6.38;;
31112;SDS011;17763;48.730;9.136;2023-06-04T02:59:43;9.15;;;5.88;;
31112;SDS011;17763;48.730;9.136;2023-06-04T03:02:09;7.53;;;6.10;;
31112;SDS011;17763;48.730;9.136;2023-06-04T03:04:36;9.02;;;5.90;;
31112;SDS011;17763;48.730;9.136;2023-06-04T03:07:02;8.50;;;5.78;;
31112;SDS011;17763;48.730;9.136;2023-06-04T03:09:32;8.18;;;5.95;;
31112;SDS011;17763;48.730;9.136;2023-06-04T03:12:02;11.88;;;6.22;;
31112;SDS011;17763;48.730;9.136;2023-06-04T03:14:29;6.25;;;5.57;;
31112;SDS011;17763;48.730;9.136;2023-06-04T03:16:59;6.88;;;6.25;;
31112;SDS011;17763;48.730;9.136;2023-06-04T03:19:39;7.57;;;5.90;;
31112;SDS011;17763;48.730;9.136;2023-06-04T03:22:06;9.60;;;6.53;;
31112;SDS011;17763;48.730;9.136;2023-06-04T03:24:34;10.38;;;5.93;;
31112;SDS011;17763;48.730;9.136;2023-06-04T03:27:10;6.90;;;6.03;;
31112;SDS011;17763;48.730;9.136;2023-06-04T03:29:36;6.55;;;5.93;;
31112;SDS011;17763;48.730;9.136;2023-06-04T03:32:02;6.72;;;6.07;;
31112;SDS011;17763;48.730;9.136;2023-06-04T03:34:29;9.57;;;6.00;;
31112;SDS011;17763;48.730;9.136;2023-06-04T03:36:56;8.45;;;5.75;;
31112;SDS011;17763;48.730;9.136;2023-06-04T03:39:23;6.22;;;5.60;;
31112;SDS011;17763;48.730;9.136;2023-06-04T03:41:49;6.45;;;5.85;;
31112;SDS011;17763;48.730;9.136;2023-06-04T03:44:15;6.45;;;5.38;;
31112;SDS011;17763;48.730;9.136;2023-06-04T03:46:45;9.35;;;5.50;;
31112;SDS011;17763;48.730;9.136;2023-06-04T03:49:11;11.50;;;5.97;;
31112;SDS011;17763;48.730;9.136;2023-06-04T03:51:37;6.65;;;5.05;;
31112;SDS011;17763;48.730;9.136;2023-06-04T03:54:04;6.10;;;5.13;;
31112;SDS011;17763;48.730;9.136;2023-06-04T03:56:30;7.25;;;4.90;;
31112;SDS011;17763;48.730;9.136;2023-06-04T03:58:56;7.20;;;5.00;;
31112;SDS011;17763;48.730;9.136;2023-06-04T04:01:22;7.25;;;4.65;;
31112;SDS011;17763;48.730;9.136;2023-06-04T04:03:51;5.60;;;4.75;;
31112;SDS011;17763;48.730;9.136;2023-06-04T04:06:17;6.03;;;4.90;;
31112;SDS011;17763;48.730;9.136;2023-06-04T04:08:43;4.97;;;4.40;;
31112;SDS011;17763;48.730;9.136;2023-06-04T04:11:13;4.35;;;3.95;;
31112;SDS011;17763;48.730;9.136;2023-06-04T04:13:39;5.30;;;4.80;;
31112;SDS011;17763;48.730;9.136;2023-06-04T04:16:05;6.45;;;4.13;;
31112;SDS011;17763;48.730;9.136;2023-06-04T04:18:35;6.15;;;4.57;;
31112;SDS011;17763;48.730;9.136;2023-06-04T04:21:01;6.32;;;4.22;;
31112;SDS011;17763;48.730;9.136;2023-06-04T04:23:28;10.35;;;4.25;;
31112;SDS011;17763;48.730;9.136;2023-06-04T04:25:58;4.75;;;4.35;;
31112;SDS011;17763;48.730;9.136;2023-06-04T04:28:24;6.38;;;4.13;;
31112;SDS011;17763;48.730;9.136;2023-06-04T04:30:54;7.55;;;5.10;;
31112;SDS011;17763;48.730;9.136;2023-06-04T04:33:24;9.30;;;4.93;;
31112;SDS011;17763;48.730;9.136;2023-06-04T04:35:57;5.25;;;4.28;;
31112;SDS011;17763;48.730;9.136;2023-06-04T04:38:24;4.95;;;4.28;;
31112;SDS011;17763;48.730;9.136;2023-06-04T04:40:51;6.45;;;4.30;;
31112;SDS011;17763;48.730;9.136;2023-06-04T04:43:30;5.20;;;4.30;;
31112;SDS011;17763;48.730;9.136;2023-06-04T04:45:57;6.32;;;4.32;;
31112;SDS011;17763;48.730;9.136;2023-06-04T04:48:25;7.38;;;4.32;;
31112;SDS011;17763;48.730;9.136;2023-06-04T04:50:51;6.63;;;4.07;;
31112;SDS011;17763;48.730;9.136;2023-06-04T04:53:18;6.50;;;4.50;;
31112;SDS011;17763;48.730;9.136;2023-06-04T04:55:43;4.60;;;4.03;;
31112;SDS011;17763;48.730;9.136;2023-06-04T04:58:09;5.35;;;3.78;;
31112;SDS011;17763;48.730;9.136;2023-06-04T05:00:38;5.47;;;3.83;;
31112;SDS011;17763;48.730;9.136;2023-06-04T05:03:03;4.40;;;3.75;;
31112;SDS011;17763;48.730;9.136;2023-06-04T05:05:29;8.60;;;4.30;;
31112;SDS011;17763;48.730;9.136;2023-06-04T05:07:55;4.68;;;4.20;;
31112;SDS011;17763;48.730;9.136;2023-06-04T05:10:20;5.22;;;3.50;;
31112;SDS011;17763;48.730;9.136;2023-06-04T05:12:57;4.72;;;3.78;;
31112;SDS011;17763;48.730;9.136;2023-06-04T05:15:24;3.90;;;3.55;;
31112;SDS011;17763;48.730;9.136;2023-06-04T05:17:51;5.63;;;3.90;;
31112;SDS011;17763;48.730;9.136;2023-06-04T05:20:17;5.60;;;3.28;;
31112;SDS011;17763;48.730;9.136;2023-06-04T05:22:45;4.82;;;3.80;;
31112;SDS011;17763;48.730;9.136;2023-06-04T05:25:11;4.55;;;3.60;;
31112;SDS011;17763;48.730;9.136;2023-06-04T05:27:37;5.93;;;4.00;;
31112;SDS011;17763;48.730;9.136;2023-06-04T05:30:05;5.97;;;3.38;;
31112;SDS011;17763;48.730;9.136;2023-06-04T05:32:32;4.97;;;3.97;;
31112;SDS011;17763;48.730;9.136;2023-06-04T05:34:58;5.72;;;3.30;;
31112;SDS011;17763;48.730;9.136;2023-06-04T05:37:25;4.78;;;3.65;;
31112;SDS011;17763;48.730;9.136;2023-06-04T05:39:57;4.30;;;3.80;;
31112;SDS011;17763;48.730;9.136;2023-06-04T05:42:23;5.05;;;3.85;;
31112;SDS011;17763;48.730;9.136;2023-06-04T05:44:51;6.00;;;3.88;;
31112;SDS011;17763;48.730;9.136;2023-06-04T05:47:19;4.13;;;3.72;;
31112;SDS011;17763;48.730;9.136;2023-06-04T05:49:45;4.10;;;3.70;;
31112;SDS011;17763;48.730;9.136;2023-06-04T05:52:14;4.10;;;3.70;;
31112;SDS011;17763;48.730;9.136;2023-06-04T05:54:39;4.45;;;3.67;;
31112;SDS011;17763;48.730;9.136;2023-06-04T05:57:05;3.88;;;3.40;;
31112;SDS011;17763;48.730;9.136;2023-06-04T05:59:31;4.15;;;3.33;;
31112;SDS011;17763;48.730;9.136;2023-06-04T06:01:57;3.70;;;3.22;;
31112;SDS011;17763;48.730;9.136;2023-06-04T06:04:23;3.65;;;3.35;;
31112;SDS011;17763;48.730;9.136;2023-06-04T06:06:48;4.18;;;3.80;;
31112;SDS011;17763;48.730;9.136;2023-06-04T06:09:15;4.57;;;3.30;;
31112;SDS011;17763;48.730;9.136;2023-06-04T06:11:44;6.38;;;3.45;;
31112;SDS011;17763;48.730;9.136;2023-06-04T06:14:09;5.32;;;3.22;;
31112;SDS011;17763;48.730;9.136;2023-06-04T06:16:35;5.75;;;3.17;;
31112;SDS011;17763;48.730;9.136;2023-06-04T06:19:01;5.75;;;3.03;;
31112;SDS011;17763;48.730;9.136;2023-06-04T06:21:27;4.85;;;3.28;;
31112;SDS011;17763;48.730;9.136;2023-06-04T06:23:53;3.80;;;3.25;;
31112;SDS011;17763;48.730;9.136;2023-06-04T06:26:19;4.93;;;3.75;;
31112;SDS011;17763;48.730;9.136;2023-06-04T06:28:47;3.03;;;2.72;;
31112;SDS011;17763;48.730;9.136;2023-06-04T06:31:12;3.83;;;2.92;;
31112;SDS011;17763;48.730;9.136;2023-06-04T06:33:38;4.72;;;3.30;;
31112;SDS011;17763;48.730;9.136;2023-06-04T06:36:07;5.65;;;2.65;;
31112;SDS011;17763;48.730;9.136;2023-06-04T06:38:34;3.45;;;3.15;;
31112;SDS011;17763;48.730;9.136;2023-06-04T06:41:00;3.78;;;3.20;;
31112;SDS011;17763;48.730;9.136;2023-06-04T06:43:26;4.88;;;3.10;;
31112;SDS011;17763;48.730;9.136;2023-06-04T06:45:54;4.30;;;2.70;;
31112;SDS011;17763;48.730;9.136;2023-06-04T06:48:20;6.03;;;3.33;;
31112;SDS011;17763;48.730;9.136;2023-06-04T06:50:48;3.60;;;3.00;;
31112;SDS011;17763;48.730;9.136;2023-06-04T06:53:22;3.38;;;2.85;;
31112;SDS011;17763;48.730;9.136;2023-06-04T06:55:50;4.85;;;2.88;;
31112;SDS011;17763;48.730;9.136;2023-06-04T06:58:16;3.08;;;2.78;;
31112;SDS011;17763;48.730;9.136;2023-06-04T07:00:42;2.80;;;2.60;;
31112;SDS011;17763;48.730;9.136;2023-06-04T07:03:08;2.90;;;2.70;;
31112;SDS011;17763;48.730;9.136;2023-06-04T07:05:34;6.22;;;3.20;;
31112;SDS011;17763;48.730;9.136;2023-06-04T07:08:01;4.30;;;3.75;;
31112;SDS011;17763;48.730;9.136;2023-06-04T07:10:27;4.28;;;2.58;;
31112;SDS011;17763;48.730;9.136;2023-06-04T07:12:56;4.35;;;3.30;;
31112;SDS011;17763;48.730;9.136;2023-06-04T07:15:22;4.95;;;2.97;;
31112;SDS011;17763;48.730;9.136;2023-06-04T07:17:48;5.85;;;2.63;;
31112;SDS011;17763;48.730;9.136;2023-06-04T07:20:13;4.95;;;2.70;;
31112;SDS011;17763;48.730;9.136;2023-06-04T07:22:41;3.55;;;2.78;;
31112;SDS011;17763;48.730;9.136;2023-06-04T07:25:07;5.10;;;3.25;;
31112;SDS011;17763;48.730;9.136;2023-06-04T07:27:36;3.75;;;2.85;;
31112;SDS011;17763;48.730;9.136;2023-06-04T07:30:02;4.28;;;2.95;;
31112;SDS011;17763;48.730;9.136;2023-06-04T07:32:28;3.72;;;2.90;;
31112;SDS011;17763;48.730;9.136;2023-06-04T07:34:53;6.63;;;3.03;;
31112;SDS011;17763;48.730;9.136;2023-06-04T07:37:19;3.20;;;2.90;;
31112;SDS011;17763;48.730;9.136;2023-06-04T07:39:45;2.47;;;2.28;;
31112;SDS011;17763;48.730;9.136;2023-06-04T07:42:11;3.35;;;2.75;;
31112;SDS011;17763;48.730;9.136;2023-06-04T07:44:39;3.95;;;2.53;;
31112;SDS011;17763;48.730;9.136;2023-06-04T07:47:05;2.90;;;2.70;;
31112;SDS011;17763;48.730;9.136;2023-06-04T07:49:33;5.63;;;2.65;;
31112;SDS011;17763;48.730;9.136;2023-06-04T07:51:58;4.40;;;2.55;;
31112;SDS011;17763;48.730;9.136;2023-06-04T07:54:25;6.45;;;2.75;;
31112;SDS011;17763;48.730;9.136;2023-06-04T07:56:51;3.97;;;2.90;;
31112;SDS011;17763;48.730;9.136;2023-06-04T07:59:21;3.60;;;2.15;;
31112;SDS011;17763;48.730;9.136;2023-06-04T08:01:52;4.75;;;3.00;;
31112;SDS011;17763;48.730;9.136;2023-06-04T08:04:18;4.30;;;2.85;;
31112;SDS011;17763;48.730;9.136;2023-06-04T08:06:46;3.35;;;2.97;;
31112;SDS011;17763;48.730;9.136;2023-06-04T08:09:12;3.47;;;3.03;;
31112;SDS011;17763;48.730;9.136;2023-06-04T08:11:42;3.47;;;2.53;;
31112;SDS011;17763;48.730;9.136;2023-06-04T08:14:13;4.22;;;2.42;;
31112;SDS011;17763;48.730;9.136;2023-06-04T08:16:39;3.30;;;2.53;;
31112;SDS011;17763;48.730;9.136;2023-06-04T08:19:05;5.03;;;2.67;;
31112;SDS011;17763;48.730;9.136;2023-06-04T08:21:35;4.32;;;2.50;;
31112;SDS011;17763;48.730;9.136;2023-06-04T08:24:00;5.80;;;2.75;;
31112;SDS011;17763;48.730;9.136;2023-06-04T08:26:31;3.72;;;3.03;;
31112;SDS011;17763;48.730;9.136;2023-06-04T08:28:58;9.02;;;2.78;;
31112;SDS011;17763;48.730;9.136;2023-06-04T08:31:25;3.25;;;2.92;;
31112;SDS011;17763;48.730;9.136;2023-06-04T08:33:51;3.20;;;2.90;;
31112;SDS011;17763;48.730;9.136;2023-06-04T08:36:17;3.75;;;3.33;;
31112;SDS011;17763;48.730;9.136;2023-06-04T08:38:43;3.03;;;2.72;;
31112;SDS011;17763;48.730;9.136;2023-06-04T08:43:41;3.38;;;2.80;;
31112;SDS011;17763;48.730;9.136;2023-06-04T08:46:09;4.53;;;3.03;;
31112;SDS011;17763;48.730;9.136;2023-06-04T08:48:37;4.82;;;2.92;;
31112;SDS011;17763;48.730;9.136;2023-06-04T08:51:06;4.55;;;2.83;;
31112;SDS011;17763;48.730;9.136;2023-06-04T08:53:34;3.63;;;3.10;;
31112;SDS011;17763;48.730;9.136;2023-06-04T08:56:03;4.15;;;2.75;;
31112;SDS011;17763;48.730;9.136;2023-06-04T08:58:31;3.70;;;2.95;;
31112;SDS011;17763;48.730;9.136;2023-06-04T09:01:01;6.53;;;3.25;;
31112;SDS011;17763;48.730;9.136;2023-06-04T09:03:29;4.78;;;2.88;;
31112;SDS011;17763;48.730;9.136;2023-06-04T09:05:58;7.82;;;3.70;;
31112;SDS011;17763;48.730;9.136;2023-06-04T09:08:24;7.80;;;3.20;;
31112;SDS011;17763;48.730;9.136;2023-06-04T09:10:53;5.35;;;2.95;;
31112;SDS011;17763;48.730;9.136;2023-06-04T09:13:22;3.03;;;2.72;;
31112;SDS011;17763;48.730;9.136;2023-06-04T09:16:00;4.97;;;2.55;;
31112;SDS011;17763;48.730;9.136;2023-06-04T09:18:26;3.50;;;3.10;;
31112;SDS011;17763;48.730;9.136;2023-06-04T09:21:02;3.80;;;2.90;;
31112;SDS011;17763;48.730;9.136;2023-06-04T09:23:49;3.90;;;2.45;;
31112;SDS011;17763;48.730;9.136;2023-06-04T09:26:16;4.70;;;3.10;;
31112;SDS011;17763;48.730;9.136;2023-06-04T09:28:44;6.82;;;3.25;;
31112;SDS011;17763;48.730;9.136;2023-06-04T09:31:16;4.03;;;2.90;;
31112;SDS011;17763;48.730;9.136;2023-06-04T09:33:43;6.00;;;3.42;;
31112;SDS011;17763;48.730;9.136;2023-06-04T09:36:10;3.28;;;2.60;;
31112;SDS011;17763;48.730;9.136;2023-06-04T09:38:36;3.53;;;2.67;;
31112;SDS011;17763;48.730;9.136;2023-06-04T09:41:02;6.15;;;3.10;;
31112;SDS011;17763;48.730;9.136;2023-06-04T09:46:13;4.47;;;2.97;;
31112;SDS011;17763;48.730;9.136;2023-06-04T09:48:40;4.82;;;3.17;;
31112;SDS011;17763;48.730;9.136;2023-06-04T09:51:14;3.05;;;2.70;;
31112;SDS011;17763;48.730;9.136;2023-06-04T09:53:43;5.10;;;3.13;;
31112;SDS011;17763;48.730;9.136;2023-06-04T09:56:22;9.75;;;3.63;;
31112;SDS011;17763;48.730;9.136;2023-06-04T09:58:53;4.20;;;3.22;;
31112;SDS011;17763;48.730;9.136;2023-06-04T10:01:23;5.07;;;3.05;;
31112;SDS011;17763;48.730;9.136;2023-06-04T10:03:51;5.80;;;3.53;;
31112;SDS011;17763;48.730;9.136;2023-06-04T10:06:21;4.43;;;3.63;;
31112;SDS011;17763;48.730;9.136;2023-06-04T10:08:48;4.20;;;3.55;;
31112;SDS011;17763;48.730;9.136;2023-06-04T10:11:17;6.15;;;3.67;;
31112;SDS011;17763;48.730;9.136;2023-06-04T10:13:56;4.13;;;3.70;;
31112;SDS011;17763;48.730;9.136;2023-06-04T10:16:30;4.22;;;3.58;;
31112;SDS011;17763;48.730;9.136;2023-06-04T10:18:57;4.43;;;4.03;;
31112;SDS011;17763;48.730;9.136;2023-06-04T10:21:24;4.43;;;3.97;;
31112;SDS011;17763;48.730;9.136;2023-06-04T10:23:51;6.15;;;3.85;;
31112;SDS011;17763;48.730;9.136;2023-06-04T10:26:17;6.70;;;4.05;;
31112;SDS011;17763;48.730;9.136;2023-06-04T10:28:45;4.15;;;3.80;;
31112;SDS011;17763;48.730;9.136;2023-06-04T10:31:11;4.80;;;4.00;;
31112;SDS011;17763;48.730;9.136;2023-06-04T10:33:38;6.40;;;3.63;;
31112;SDS011;17763;48.730;9.136;2023-06-04T10:36:25;3.72;;;3.42;;
31112;SDS011;17763;48.730;9.136;2023-06-04T10:38:51;4.13;;;3.72;;
31112;SDS011;17763;48.730;9.136;2023-06-04T10:41:20;7.65;;;4.07;;
31112;SDS011;17763;48.730;9.136;2023-06-04T10:43:50;4.18;;;3.70;;
31112;SDS011;17763;48.730;9.136;2023-06-04T10:46:25;4.20;;;3.90;;
31112;SDS011;17763;48.730;9.136;2023-06-04T10:49:01;4.25;;;3.85;;
31112;SDS011;17763;48.730;9.136;2023-06-04T10:51:31;4.50;;;3.97;;
31112;SDS011;17763;48.730;9.136;2023-06-04T10:53:58;6.22;;;4.35;;
31112;SDS011;17763;48.730;9.136;2023-06-04T10:56:28;7.15;;;3.85;;
31112;SDS011;17763;48.730;9.136;2023-06-04T10:59:12;6.93;;;4.18;;
31112;SDS011;17763;48.730;9.136;2023-06-04T11:01:40;5.18;;;3.75;;
31112;SDS011;17763;48.730;9.136;2023-06-04T11:04:05;4.63;;;3.78;;
31112;SDS011;17763;48.730;9.136;2023-06-04T11:06:31;4.43;;;4.03;;
31112;SDS011;17763;48.730;9.136;2023-06-04T11:09:03;4.50;;;4.07;;
31112;SDS011;17763;48.730;9.136;2023-06-04T11:11:33;6.72;;;4.25;;
31112;SDS011;17763;48.730;9.136;2023-06-04T11:14:08;8.50;;;3.90;;
31112;SDS011;17763;48.730;9.136;2023-06-04T11:16:34;5.57;;;4.10;;
31112;SDS011;17763;48.730;9.136;2023-06-04T11:19:00;6.70;;;4.40;;
31112;SDS011;17763;48.730;9.136;2023-06-04T11:21:27;6.63;;;4.10;;
31112;SDS011;17763;48.730;9.136;2023-06-04T11:23:59;4.30;;;3.90;;
31112;SDS011;17763;48.730;9.136;2023-06-04T11:26:35;6.22;;;4.10;;
31112;SDS011;17763;48.730;9.136;2023-06-04T11:29:07;5.55;;;4.68;;
31112;SDS011;17763;48.730;9.136;2023-06-04T11:31:41;8.07;;;4.80;;
31112;SDS011;17763;48.730;9.136;2023-06-04T11:34:08;5.28;;;4.47;;
31112;SDS011;17763;48.730;9.136;2023-06-04T11:36:33;7.20;;;3.83;;
31112;SDS011;17763;48.730;9.136;2023-06-04T11:39:02;6.25;;;3.85;;
31112;SDS011;17763;48.730;9.136;2023-06-04T11:41:32;4.25;;;3.78;;
31112;SDS011;17763;48.730;9.136;2023-06-04T11:44:02;4.28;;;3.88;;
31112;SDS011;17763;48.730;9.136;2023-06-04T11:46:30;4.60;;;3.63;;
31112;SDS011;17763;48.730;9.136;2023-06-04T11:49:11;3.90;;;3.53;;
31112;SDS011;17763;48.730;9.136;2023-06-04T11:51:45;4.55;;;3.75;;
31112;SDS011;17763;48.730;9.136;2023-06-04T11:54:15;3.85;;;3.45;;
31112;SDS011;17763;48.730;9.136;2023-06-04T11:56:42;4.20;;;3.72;;
31112;SDS011;17763;48.730;9.136;2023-06-04T11:59:13;4.05;;;3.70;;
31112;SDS011;17763;48.730;9.136;2023-06-04T12:01:40;4.45;;;3.72;;
31112;SDS011;17763;48.730;9.136;2023-06-04T12:06:53;4.60;;;4.20;;
31112;SDS011;17763;48.730;9.136;2023-06-04T12:09:23;6.97;;;4.35;;
31112;SDS011;17763;48.730;9.136;2023-06-04T12:11:57;4.38;;;3.88;;
31112;SDS011;17763;48.730;9.136;2023-06-04T12:14:26;4.40;;;4.00;;
31112;SDS011;17763;48.730;9.136;2023-06-04T12:19:25;4.60;;;3.67;;
31112;SDS011;17763;48.730;9.136;2023-06-04T12:24:51;4.40;;;4.00;;
31112;SDS011;17763;48.730;9.136;2023-06-04T12:27:20;5.75;;;4.20;;
31112;SDS011;17763;48.730;9.136;2023-06-04T12:32:26;4.82;;;4.03;;
31112;SDS011;17763;48.730;9.136;2023-06-04T12:34:52;4.53;;;3.70;;
31112;SDS011;17763;48.730;9.136;2023-06-04T12:37:19;5.43;;;3.72;;
31112;SDS011;17763;48.730;9.136;2023-06-04T12:39:50;4.15;;;3.75;;
31112;SDS011;17763;48.730;9.136;2023-06-04T12:42:23;7.05;;;4.20;;
31112;SDS011;17763;48.730;9.136;2023-06-04T12:44:55;6.22;;;4.03;;
31112;SDS011;17763;48.730;9.136;2023-06-04T12:47:21;4.85;;;3.45;;
31112;SDS011;17763;48.730;9.136;2023-06-04T12:49:46;4.43;;;4.03;;
31112;SDS011;17763;48.730;9.136;2023-06-04T12:52:12;4.85;;;4.25;;
31112;SDS011;17763;48.730;9.136;2023-06-04T12:54:43;5.82;;;4.60;;
31112;SDS011;17763;48.730;9.136;2023-06-04T12:57:09;4.90;;;4.45;;
31112;SDS011;17763;48.730;9.136;2023-06-04T12:59:37;8.38;;;4.40;;
31112;SDS011;17763;48.730;9.136;2023-06-04T13:02:03;8.00;;;4.80;;
31112;SDS011;17763;48.730;9.136;2023-06-04T13:04:29;7.82;;;4.13;;
31112;SDS011;17763;48.730;9.136;2023-06-04T13:06:55;7.35;;;4.50;;
31112;SDS011;17763;48.730;9.136;2023-06-04T13:09:24;5.60;;;4.00;;
31112;SDS011;17763;48.730;9.136;2023-06-04T13:11:50;4.47;;;4.10;;
31112;SDS011;17763;48.730;9.136;2023-06-04T13:14:18;5.68;;;4.43;;
31112;SDS011;17763;48.730;9.136;2023-06-04T13:16:44;4.30;;;4.00;;
31112;SDS011;17763;48.730;9.136;2023-06-04T13:19:13;3.92;;;3.63;;
31112;SDS011;17763;48.730;9.136;2023-06-04T13:21:39;5.38;;;3.75;;
31112;SDS011;17763;48.730;9.136;2023-06-04T13:24:05;4.38;;;3.97;;
31112;SDS011;17763;48.730;9.136;2023-06-04T13:26:32;6.40;;;4.10;;
31112;SDS011;17763;48.730;9.136;2023-06-04T13:29:00;6.15;;;4.18;;
31112;SDS011;17763;48.730;9.136;2023-06-04T13:31:26;4.88;;;4.30;;
31112;SDS011;17763;48.730;9.136;2023-06-04T13:33:52;5.55;;;4.15;;
31112;SDS011;17763;48.730;9.136;2023-06-04T13:36:17;4.63;;;4.15;;
31112;SDS011;17763;48.730;9.136;2023-06-04T13:38:46;4.72;;;4.32;;
31112;SDS011;17763;48.730;9.136;2023-06-04T13:41:12;4.38;;;3.97;;
31112;SDS011;17763;48.730;9.136;2023-06-04T13:43:37;5.78;;;4.00;;
31112;SDS011;17763;48.730;9.136;2023-06-04T13:46:05;5.18;;;4.10;;
31112;SDS011;17763;48.730;9.136;2023-06-04T13:48:31;5.57;;;4.53;;
31112;SDS011;17763;48.730;9.136;2023-06-04T13:51:02;3.90;;;3.60;;
31112;SDS011;17763;48.730;9.136;2023-06-04T13:53:30;7.25;;;4.40;;
31112;SDS011;17763;48.730;9.136;2023-06-04T13:55:58;7.05;;;4.95;;
31112;SDS011;17763;48.730;9.136;2023-06-04T13:58:24;6.18;;;4.60;;
31112;SDS011;17763;48.730;9.136;2023-06-04T14:00:51;4.85;;;4.40;;
31112;SDS011;17763;48.730;9.136;2023-06-04T14:03:17;4.88;;;4.18;;
31112;SDS011;17763;48.730;9.136;2023-06-04T14:05:45;5.57;;;3.92;;
31112;SDS011;17763;48.730;9.136;2023-06-04T14:08:11;5.13;;;4.00;;
31112;SDS011;17763;48.730;9.136;2023-06-04T14:10:37;4.00;;;3.70;;
31112;SDS011;17763;48.730;9.136;2023-06-04T14:13:06;5.20;;;4.70;;
31112;SDS011;17763;48.730;9.136;2023-06-04T14:15:32;5.93;;;3.33;;
31112;SDS011;17763;48.730;9.136;2023-06-04T14:18:03;5.57;;;3.93;;
31112;SDS011;17763;48.730;9.136;2023-06-04T14:20:29;5.13;;;3.30;;
31112;SDS011;17763;48.730;9.136;2023-06-04T14:22:55;3.65;;;3.13;;
31112;SDS011;17763;48.730;9.136;2023-06-04T14:25:21;6.10;;;3.80;;
31112;SDS011;17763;48.730;9.136;2023-06-04T14:27:47;5.22;;;3.28;;
31112;SDS011;17763;48.730;9.136;2023-06-04T14:30:14;4.70;;;3.90;;
31112;SDS011;17763;48.730;9.136;2023-06-04T14:32:41;4.65;;;4.20;;
31112;SDS011;17763;48.730;9.136;2023-06-04T14:35:07;5.82;;;3.55;;
31112;SDS011;17763;48.730;9.136;2023-06-04T14:37:33;6.35;;;4.45;;
31112;SDS011;17763;48.730;9.136;2023-06-04T14:39:59;10.38;;;4.13;;
31112;SDS011;17763;48.730;9.136;2023-06-04T14:42:24;5.13;;;4.65;;
31112;SDS011;17763;48.730;9.136;2023-06-04T14:44:50;5.25;;;4.22;;
31112;SDS011;17763;48.730;9.136;2023-06-04T14:47:18;4.90;;;3.60;;
31112;SDS011;17763;48.730;9.136;2023-06-04T14:49:46;5.30;;;3.92;;
31112;SDS011;17763;48.730;9.136;2023-06-04T14:52:12;6.05;;;3.40;;
31112;SDS011;17763;48.730;9.136;2023-06-04T14:54:41;4.95;;;3.80;;
31112;SDS011;17763;48.730;9.136;2023-06-04T14:57:06;3.78;;;3.47;;
31112;SDS011;17763;48.730;9.136;2023-06-04T14:59:32;6.45;;;3.90;;
31112;SDS011;17763;48.730;9.136;2023-06-04T15:01:58;5.68;;;3.92;;
31112;SDS011;17763;48.730;9.136;2023-06-04T15:04:29;5.07;;;4.00;;
31112;SDS011;17763;48.730;9.136;2023-06-04T15:06:54;4.45;;;4.10;;
31112;SDS011;17763;48.730;9.136;2023-06-04T15:09:20;4.35;;;4.03;;
31112;SDS011;17763;48.730;9.136;2023-06-04T15:11:46;6.32;;;4.15;;
31112;SDS011;17763;48.730;9.136;2023-06-04T15:14:13;5.07;;;4.57;;
31112;SDS011;17763;48.730;9.136;2023-06-04T15:16:41;4.68;;;4.28;;
31112;SDS011;17763;48.730;9.136;2023-06-04T15:19:08;4.80;;;4.30;;